sensor_id;sensor_type;location;lat;lon;timestamp;P1;durP1;ratioP1;P2;durP2;ratioP2
65581;SDS011;52231;40.090;18.348;2024-03-08T00:00:14;28.15;;;17.88;;
65581;SDS011;52231;40.090;18.348;2024-03-08T00:02:46;27.92;;;18.17;;
65581;SDS011;52231;40.090;18.348;2024-03-08T00:05:18;31.10;;;17.13;;
65581;SDS011;52231;40.090;18.348;2024-03-08T00:07:46;28.33;;;16.85;;
65581;SDS011;52231;40.090;18.348;2024-03-08T00:10:14;28.13;;;16.55;;
65581;SDS011;52231;40.090;18.348;2024-03-08T00:12:44;28.23;;;16.85;;
65581;SDS011;52231;40.090;18.348;2024-03-08T00:15:14;30.65;;;16.75;;
65581;SDS011;52231;40.090;18.348;2024-03-08T00:17:44;27.77;;;16.95;;
65581;SDS011;52231;40.090;18.348;2024-03-08T00:20:13;26.65;;;16.33;;
65581;SDS011;52231;40.090;18.348;2024-03-08T00:25:10;27.38;;;15.80;;
65581;SDS011;52231;40.090;18.348;2024-03-08T00:27:41;25.73;;;16.27;;
65581;SDS011;52231;40.090;18.348;2024-03-08T00:30:10;27.25;;;15.02;;
65581;SDS011;52231;40.090;18.348;2024-03-08T00:32:40;29.05;;;16.75;;
65581;SDS011;52231;40.090;18.348;2024-03-08T00:35:09;27.27;;;15.43;;
65581;SDS011;52231;40.090;18.348;2024-03-08T00:37:37;25.25;;;15.82;;
65581;SDS011;52231;40.090;18.348;2024-03-08T00:40:05;28.45;;;16.85;;
65581;SDS011;52231;40.090;18.348;2024-03-08T00:42:36;24.80;;;15.68;;
65581;SDS011;52231;40.090;18.348;2024-03-08T00:45:05;28.85;;;15.48;;
65581;SDS011;52231;40.090;18.348;2024-03-08T00:47:35;28.23;;;15.82;;
65581;SDS011;52231;40.090;18.348;2024-03-08T00:50:03;28.48;;;15.77;;
65581;SDS011;52231;40.090;18.348;2024-03-08T00:52:32;25.02;;;15.23;;
65581;SDS011;52231;40.090;18.348;2024-03-08T00:55:20;26.55;;;16.00;;
65581;SDS011;52231;40.090;18.348;2024-03-08T00:57:48;28.08;;;16.55;;
65581;SDS011;52231;40.090;18.348;2024-03-08T01:00:17;29.80;;;16.83;;
65581;SDS011;52231;40.090;18.348;2024-03-08T01:02:47;25.67;;;15.75;;
65581;SDS011;52231;40.090;18.348;2024-03-08T01:05:15;27.55;;;16.17;;
65581;SDS011;52231;40.090;18.348;2024-03-08T01:07:43;26.02;;;16.50;;
65581;SDS011;52231;40.090;18.348;2024-03-08T01:10:13;27.58;;;16.45;;
65581;SDS011;52231;40.090;18.348;2024-03-08T01:12:41;25.83;;;16.35;;
65581;SDS011;52231;40.090;18.348;2024-03-08T01:15:12;25.80;;;15.90;;
65581;SDS011;52231;40.090;18.348;2024-03-08T01:17:41;26.55;;;16.83;;
65581;SDS011;52231;40.090;18.348;2024-03-08T01:20:11;25.25;;;14.93;;
65581;SDS011;52231;40.090;18.348;2024-03-08T01:22:40;25.73;;;16.80;;
65581;SDS011;52231;40.090;18.348;2024-03-08T01:25:08;26.45;;;15.38;;
65581;SDS011;52231;40.090;18.348;2024-03-08T01:27:36;27.15;;;15.88;;
65581;SDS011;52231;40.090;18.348;2024-03-08T01:30:04;29.08;;;16.35;;
65581;SDS011;52231;40.090;18.348;2024-03-08T01:32:33;28.75;;;17.02;;
65581;SDS011;52231;40.090;18.348;2024-03-08T01:35:01;29.23;;;16.90;;
65581;SDS011;52231;40.090;18.348;2024-03-08T01:37:30;29.77;;;16.50;;
65581;SDS011;52231;40.090;18.348;2024-03-08T01:39:58;29.90;;;15.88;;
65581;SDS011;52231;40.090;18.348;2024-03-08T01:42:27;30.52;;;17.17;;
65581;SDS011;52231;40.090;18.348;2024-03-08T01:44:55;30.63;;;19.15;;
65581;SDS011;52231;40.090;18.348;2024-03-08T01:47:24;28.83;;;17.63;;
65581;SDS011;52231;40.090;18.348;2024-03-08T01:49:53;31.20;;;17.95;;
65581;SDS011;52231;40.090;18.348;2024-03-08T01:52:21;32.20;;;18.83;;
65581;SDS011;52231;40.090;18.348;2024-03-08T01:55:10;31.63;;;18.55;;
65581;SDS011;52231;40.090;18.348;2024-03-08T01:57:38;31.73;;;18.63;;
65581;SDS011;52231;40.090;18.348;2024-03-08T02:00:06;32.53;;;19.48;;
65581;SDS011;52231;40.090;18.348;2024-03-08T02:02:38;30.33;;;19.98;;
65581;SDS011;52231;40.090;18.348;2024-03-08T02:05:09;30.95;;;19.48;;
65581;SDS011;52231;40.090;18.348;2024-03-08T02:07:38;34.13;;;20.55;;
65581;SDS011;52231;40.090;18.348;2024-03-08T02:10:11;33.95;;;20.35;;
65581;SDS011;52231;40.090;18.348;2024-03-08T02:12:42;31.77;;;19.45;;
65581;SDS011;52231;40.090;18.348;2024-03-08T02:17:39;30.85;;;18.80;;
65581;SDS011;52231;40.090;18.348;2024-03-08T02:20:09;32.05;;;19.42;;
65581;SDS011;52231;40.090;18.348;2024-03-08T02:22:38;26.63;;;17.10;;
65581;SDS011;52231;40.090;18.348;2024-03-08T02:25:07;28.42;;;19.00;;
65581;SDS011;52231;40.090;18.348;2024-03-08T02:27:36;33.08;;;19.88;;
65581;SDS011;52231;40.090;18.348;2024-03-08T02:30:04;29.80;;;18.23;;
65581;SDS011;52231;40.090;18.348;2024-03-08T02:32:33;34.28;;;17.70;;
65581;SDS011;52231;40.090;18.348;2024-03-08T02:35:01;30.13;;;18.25;;
65581;SDS011;52231;40.090;18.348;2024-03-08T02:37:29;27.92;;;17.60;;
65581;SDS011;52231;40.090;18.348;2024-03-08T02:39:57;28.80;;;18.90;;
65581;SDS011;52231;40.090;18.348;2024-03-08T02:42:25;29.58;;;18.55;;
65581;SDS011;52231;40.090;18.348;2024-03-08T02:44:53;28.95;;;17.83;;
65581;SDS011;52231;40.090;18.348;2024-03-08T02:47:21;27.63;;;17.13;;
65581;SDS011;52231;40.090;18.348;2024-03-08T02:49:51;28.13;;;16.88;;
65581;SDS011;52231;40.090;18.348;2024-03-08T02:52:20;26.58;;;17.58;;
65581;SDS011;52231;40.090;18.348;2024-03-08T02:54:48;25.67;;;16.40;;
65581;SDS011;52231;40.090;18.348;2024-03-08T02:57:17;26.35;;;17.35;;
65581;SDS011;52231;40.090;18.348;2024-03-08T02:59:46;26.08;;;16.88;;
65581;SDS011;52231;40.090;18.348;2024-03-08T03:02:14;27.45;;;16.90;;
65581;SDS011;52231;40.090;18.348;2024-03-08T03:04:42;28.20;;;17.83;;
65581;SDS011;52231;40.090;18.348;2024-03-08T03:07:10;29.60;;;17.17;;
65581;SDS011;52231;40.090;18.348;2024-03-08T03:09:38;25.73;;;16.80;;
65581;SDS011;52231;40.090;18.348;2024-03-08T03:12:07;24.15;;;16.48;;
65581;SDS011;52231;40.090;18.348;2024-03-08T03:14:36;29.98;;;17.38;;
65581;SDS011;52231;40.090;18.348;2024-03-08T03:17:07;27.65;;;16.77;;
65581;SDS011;52231;40.090;18.348;2024-03-08T03:19:37;25.52;;;15.55;;
65581;SDS011;52231;40.090;18.348;2024-03-08T03:22:08;24.70;;;16.08;;
65581;SDS011;52231;40.090;18.348;2024-03-08T03:24:38;25.23;;;15.35;;
65581;SDS011;52231;40.090;18.348;2024-03-08T03:27:06;24.95;;;15.32;;
65581;SDS011;52231;40.090;18.348;2024-03-08T03:29:38;25.92;;;14.55;;
65581;SDS011;52231;40.090;18.348;2024-03-08T03:32:09;24.63;;;13.63;;
65581;SDS011;52231;40.090;18.348;2024-03-08T03:34:38;25.02;;;15.32;;
65581;SDS011;52231;40.090;18.348;2024-03-08T03:37:07;25.30;;;14.27;;
65581;SDS011;52231;40.090;18.348;2024-03-08T03:39:40;24.42;;;14.13;;
65581;SDS011;52231;40.090;18.348;2024-03-08T03:42:16;23.65;;;14.23;;
65581;SDS011;52231;40.090;18.348;2024-03-08T03:47:15;22.00;;;14.13;;
65581;SDS011;52231;40.090;18.348;2024-03-08T03:49:43;24.80;;;13.00;;
65581;SDS011;52231;40.090;18.348;2024-03-08T03:54:40;21.35;;;13.35;;
65581;SDS011;52231;40.090;18.348;2024-03-08T03:57:08;21.75;;;14.15;;
65581;SDS011;52231;40.090;18.348;2024-03-08T03:59:36;22.85;;;13.02;;
65581;SDS011;52231;40.090;18.348;2024-03-08T04:02:04;23.73;;;13.82;;
65581;SDS011;52231;40.090;18.348;2024-03-08T04:04:33;22.95;;;12.98;;
65581;SDS011;52231;40.090;18.348;2024-03-08T04:07:01;30.15;;;15.10;;
65581;SDS011;52231;40.090;18.348;2024-03-08T04:09:29;32.15;;;16.90;;
65581;SDS011;52231;40.090;18.348;2024-03-08T04:11:58;72.53;;;32.47;;
65581;SDS011;52231;40.090;18.348;2024-03-08T04:14:26;61.10;;;30.02;;
65581;SDS011;52231;40.090;18.348;2024-03-08T04:16:54;50.15;;;24.40;;
65581;SDS011;52231;40.090;18.348;2024-03-08T04:19:22;36.58;;;20.35;;
65581;SDS011;52231;40.090;18.348;2024-03-08T04:21:51;31.90;;;17.25;;
65581;SDS011;52231;40.090;18.348;2024-03-08T04:24:20;30.13;;;15.55;;
65581;SDS011;52231;40.090;18.348;2024-03-08T04:26:48;29.17;;;16.67;;
65581;SDS011;52231;40.090;18.348;2024-03-08T04:29:16;27.05;;;16.02;;
65581;SDS011;52231;40.090;18.348;2024-03-08T04:31:44;25.05;;;15.65;;
65581;SDS011;52231;40.090;18.348;2024-03-08T04:34:13;24.90;;;13.57;;
65581;SDS011;52231;40.090;18.348;2024-03-08T04:36:42;27.15;;;14.52;;
65581;SDS011;52231;40.090;18.348;2024-03-08T04:39:10;23.60;;;13.05;;
65581;SDS011;52231;40.090;18.348;2024-03-08T04:41:40;23.27;;;12.85;;
65581;SDS011;52231;40.090;18.348;2024-03-08T04:44:11;21.23;;;13.07;;
65581;SDS011;52231;40.090;18.348;2024-03-08T04:46:40;24.67;;;14.07;;
65581;SDS011;52231;40.090;18.348;2024-03-08T04:49:08;25.02;;;13.70;;
65581;SDS011;52231;40.090;18.348;2024-03-08T04:51:39;21.60;;;13.60;;
65581;SDS011;52231;40.090;18.348;2024-03-08T04:54:08;22.90;;;14.18;;
65581;SDS011;52231;40.090;18.348;2024-03-08T04:56:36;26.35;;;13.98;;
65581;SDS011;52231;40.090;18.348;2024-03-08T04:59:04;21.60;;;13.68;;
65581;SDS011;52231;40.090;18.348;2024-03-08T05:01:35;22.45;;;13.57;;
65581;SDS011;52231;40.090;18.348;2024-03-08T05:04:06;22.10;;;13.10;;
65581;SDS011;52231;40.090;18.348;2024-03-08T05:06:36;23.95;;;13.18;;
65581;SDS011;52231;40.090;18.348;2024-03-08T05:09:04;20.88;;;13.25;;
65581;SDS011;52231;40.090;18.348;2024-03-08T05:11:44;24.05;;;13.18;;
65581;SDS011;52231;40.090;18.348;2024-03-08T05:14:14;18.55;;;12.23;;
65581;SDS011;52231;40.090;18.348;2024-03-08T05:16:47;25.20;;;13.75;;
65581;SDS011;52231;40.090;18.348;2024-03-08T05:19:19;22.63;;;12.10;;
65581;SDS011;52231;40.090;18.348;2024-03-08T05:21:49;21.58;;;13.07;;
65581;SDS011;52231;40.090;18.348;2024-03-08T05:24:18;26.40;;;14.98;;
65581;SDS011;52231;40.090;18.348;2024-03-08T05:26:46;23.08;;;13.43;;
65581;SDS011;52231;40.090;18.348;2024-03-08T05:29:15;26.85;;;14.52;;
65581;SDS011;52231;40.090;18.348;2024-03-08T05:31:49;38.03;;;20.88;;
65581;SDS011;52231;40.090;18.348;2024-03-08T05:34:22;30.55;;;17.58;;
65581;SDS011;52231;40.090;18.348;2024-03-08T05:36:50;25.50;;;13.45;;
65581;SDS011;52231;40.090;18.348;2024-03-08T05:39:18;23.17;;;14.32;;
65581;SDS011;52231;40.090;18.348;2024-03-08T05:41:47;26.80;;;13.27;;
65581;SDS011;52231;40.090;18.348;2024-03-08T05:44:15;28.55;;;15.32;;
65581;SDS011;52231;40.090;18.348;2024-03-08T05:46:46;28.15;;;13.73;;
65581;SDS011;52231;40.090;18.348;2024-03-08T05:49:14;19.75;;;11.93;;
65581;SDS011;52231;40.090;18.348;2024-03-08T05:51:43;27.17;;;14.70;;
65581;SDS011;52231;40.090;18.348;2024-03-08T05:54:11;32.85;;;18.63;;
65581;SDS011;52231;40.090;18.348;2024-03-08T05:56:40;33.90;;;16.13;;
65581;SDS011;52231;40.090;18.348;2024-03-08T05:59:11;27.00;;;12.85;;
65581;SDS011;52231;40.090;18.348;2024-03-08T06:01:40;22.50;;;11.13;;
65581;SDS011;52231;40.090;18.348;2024-03-08T06:04:08;21.13;;;11.70;;
65581;SDS011;52231;40.090;18.348;2024-03-08T06:06:38;20.33;;;11.38;;
65581;SDS011;52231;40.090;18.348;2024-03-08T06:09:07;23.45;;;11.07;;
65581;SDS011;52231;40.090;18.348;2024-03-08T06:11:44;21.58;;;11.45;;
65581;SDS011;52231;40.090;18.348;2024-03-08T06:14:13;24.27;;;12.60;;
65581;SDS011;52231;40.090;18.348;2024-03-08T06:16:46;31.17;;;15.40;;
65581;SDS011;52231;40.090;18.348;2024-03-08T06:21:43;22.92;;;11.68;;
65581;SDS011;52231;40.090;18.348;2024-03-08T06:24:11;22.83;;;12.98;;
65581;SDS011;52231;40.090;18.348;2024-03-08T06:26:40;23.65;;;12.60;;
65581;SDS011;52231;40.090;18.348;2024-03-08T06:29:08;20.85;;;11.68;;
65581;SDS011;52231;40.090;18.348;2024-03-08T06:31:36;25.05;;;10.38;;
65581;SDS011;52231;40.090;18.348;2024-03-08T06:34:08;21.05;;;10.32;;
65581;SDS011;52231;40.090;18.348;2024-03-08T06:36:36;21.05;;;10.60;;
65581;SDS011;52231;40.090;18.348;2024-03-08T06:39:06;21.17;;;10.68;;
65581;SDS011;52231;40.090;18.348;2024-03-08T06:41:37;23.58;;;11.32;;
65581;SDS011;52231;40.090;18.348;2024-03-08T06:44:05;20.33;;;10.48;;
65581;SDS011;52231;40.090;18.348;2024-03-08T06:46:35;21.92;;;10.50;;
65581;SDS011;52231;40.090;18.348;2024-03-08T06:49:03;22.33;;;10.60;;
65581;SDS011;52231;40.090;18.348;2024-03-08T06:51:32;31.33;;;14.45;;
65581;SDS011;52231;40.090;18.348;2024-03-08T06:54:00;36.15;;;17.67;;
65581;SDS011;52231;40.090;18.348;2024-03-08T06:56:29;35.88;;;18.20;;
65581;SDS011;52231;40.090;18.348;2024-03-08T06:58:57;21.85;;;11.10;;
65581;SDS011;52231;40.090;18.348;2024-03-08T07:01:25;23.33;;;10.77;;
65581;SDS011;52231;40.090;18.348;2024-03-08T07:03:53;28.10;;;13.40;;
65581;SDS011;52231;40.090;18.348;2024-03-08T07:06:24;26.50;;;12.93;;
65581;SDS011;52231;40.090;18.348;2024-03-08T07:08:52;24.70;;;12.57;;
65581;SDS011;52231;40.090;18.348;2024-03-08T07:11:20;25.00;;;13.15;;
65581;SDS011;52231;40.090;18.348;2024-03-08T07:13:49;26.80;;;12.63;;
65581;SDS011;52231;40.090;18.348;2024-03-08T07:16:17;20.25;;;10.20;;
65581;SDS011;52231;40.090;18.348;2024-03-08T07:18:45;20.77;;;9.88;;
65581;SDS011;52231;40.090;18.348;2024-03-08T07:21:13;18.48;;;10.05;;
65581;SDS011;52231;40.090;18.348;2024-03-08T07:23:42;19.92;;;10.23;;
65581;SDS011;52231;40.090;18.348;2024-03-08T07:26:15;22.85;;;9.90;;
65581;SDS011;52231;40.090;18.348;2024-03-08T07:28:44;20.63;;;9.60;;
65581;SDS011;52231;40.090;18.348;2024-03-08T07:31:12;16.13;;;6.93;;
65581;SDS011;52231;40.090;18.348;2024-03-08T07:34:19;19.27;;;7.70;;
65581;SDS011;52231;40.090;18.348;2024-03-08T07:36:48;14.55;;;6.32;;
65581;SDS011;52231;40.090;18.348;2024-03-08T07:39:17;13.68;;;5.50;;
65581;SDS011;52231;40.090;18.348;2024-03-08T07:44:15;10.80;;;4.05;;
65581;SDS011;52231;40.090;18.348;2024-03-08T07:46:44;13.52;;;5.10;;
65581;SDS011;52231;40.090;18.348;2024-03-08T07:49:12;12.10;;;4.70;;
65581;SDS011;52231;40.090;18.348;2024-03-08T07:51:41;11.07;;;4.32;;
65581;SDS011;52231;40.090;18.348;2024-03-08T07:54:09;11.55;;;4.15;;
65581;SDS011;52231;40.090;18.348;2024-03-08T07:56:38;8.52;;;3.53;;
65581;SDS011;52231;40.090;18.348;2024-03-08T07:59:06;12.30;;;4.18;;
65581;SDS011;52231;40.090;18.348;2024-03-08T08:01:35;9.27;;;3.45;;
65581;SDS011;52231;40.090;18.348;2024-03-08T08:04:03;8.25;;;2.22;;
65581;SDS011;52231;40.090;18.348;2024-03-08T08:06:32;6.18;;;2.10;;
65581;SDS011;52231;40.090;18.348;2024-03-08T08:09:00;7.47;;;2.03;;
65581;SDS011;52231;40.090;18.348;2024-03-08T08:11:29;5.50;;;1.92;;
65581;SDS011;52231;40.090;18.348;2024-03-08T08:13:57;3.97;;;1.60;;
65581;SDS011;52231;40.090;18.348;2024-03-08T08:16:26;6.15;;;2.20;;
65581;SDS011;52231;40.090;18.348;2024-03-08T08:18:55;6.18;;;2.10;;
65581;SDS011;52231;40.090;18.348;2024-03-08T08:21:23;4.53;;;1.85;;
65581;SDS011;52231;40.090;18.348;2024-03-08T08:23:52;7.50;;;2.50;;
65581;SDS011;52231;40.090;18.348;2024-03-08T08:26:20;5.78;;;2.00;;
65581;SDS011;52231;40.090;18.348;2024-03-08T08:31:17;5.75;;;1.67;;
65581;SDS011;52231;40.090;18.348;2024-03-08T08:36:16;5.25;;;1.92;;
65581;SDS011;52231;40.090;18.348;2024-03-08T08:38:45;6.93;;;2.30;;
65581;SDS011;52231;40.090;18.348;2024-03-08T08:41:13;3.00;;;1.45;;
65581;SDS011;52231;40.090;18.348;2024-03-08T08:43:43;3.35;;;1.17;;
65581;SDS011;52231;40.090;18.348;2024-03-08T08:46:13;3.08;;;1.45;;
65581;SDS011;52231;40.090;18.348;2024-03-08T08:48:44;5.22;;;1.58;;
65581;SDS011;52231;40.090;18.348;2024-03-08T08:51:13;3.80;;;1.50;;
65581;SDS011;52231;40.090;18.348;2024-03-08T08:53:42;3.42;;;1.27;;
65581;SDS011;52231;40.090;18.348;2024-03-08T08:56:13;5.43;;;1.27;;
65581;SDS011;52231;40.090;18.348;2024-03-08T08:58:41;4.82;;;1.73;;
65581;SDS011;52231;40.090;18.348;2024-03-08T09:01:10;6.75;;;2.67;;
65581;SDS011;52231;40.090;18.348;2024-03-08T09:03:38;7.80;;;2.80;;
65581;SDS011;52231;40.090;18.348;2024-03-08T09:06:08;7.18;;;2.40;;
65581;SDS011;52231;40.090;18.348;2024-03-08T09:08:47;4.85;;;1.60;;
65581;SDS011;52231;40.090;18.348;2024-03-08T09:11:16;4.28;;;1.50;;
65581;SDS011;52231;40.090;18.348;2024-03-08T09:13:44;7.55;;;2.05;;
65581;SDS011;52231;40.090;18.348;2024-03-08T09:16:13;5.68;;;2.10;;
65581;SDS011;52231;40.090;18.348;2024-03-08T09:21:10;5.30;;;2.05;;
65581;SDS011;52231;40.090;18.348;2024-03-08T09:26:07;7.78;;;2.50;;
65581;SDS011;52231;40.090;18.348;2024-03-08T09:28:37;5.45;;;2.15;;
65581;SDS011;52231;40.090;18.348;2024-03-08T09:31:06;4.55;;;2.15;;
65581;SDS011;52231;40.090;18.348;2024-03-08T09:33:34;7.30;;;2.38;;
65581;SDS011;52231;40.090;18.348;2024-03-08T09:36:03;7.38;;;2.75;;
65581;SDS011;52231;40.090;18.348;2024-03-08T09:38:31;5.47;;;2.20;;
65581;SDS011;52231;40.090;18.348;2024-03-08T09:40:59;4.53;;;1.75;;
65581;SDS011;52231;40.090;18.348;2024-03-08T09:43:28;5.32;;;1.92;;
65581;SDS011;52231;40.090;18.348;2024-03-08T09:45:58;5.43;;;1.88;;
65581;SDS011;52231;40.090;18.348;2024-03-08T09:50:54;3.53;;;1.40;;
65581;SDS011;52231;40.090;18.348;2024-03-08T09:53:23;3.25;;;1.40;;
65581;SDS011;52231;40.090;18.348;2024-03-08T09:55:51;3.92;;;1.35;;
65581;SDS011;52231;40.090;18.348;2024-03-08T09:58:19;6.82;;;1.70;;
65581;SDS011;52231;40.090;18.348;2024-03-08T10:00:47;2.70;;;1.10;;
65581;SDS011;52231;40.090;18.348;2024-03-08T10:03:15;1.60;;;1.10;;
65581;SDS011;52231;40.090;18.348;2024-03-08T10:05:43;3.25;;;1.45;;
65581;SDS011;52231;40.090;18.348;2024-03-08T10:08:12;2.03;;;1.10;;
65581;SDS011;52231;40.090;18.348;2024-03-08T10:13:09;2.40;;;1.15;;
65581;SDS011;52231;40.090;18.348;2024-03-08T10:15:40;2.63;;;1.25;;
65581;SDS011;52231;40.090;18.348;2024-03-08T10:20:37;1.67;;;1.00;;
65581;SDS011;52231;40.090;18.348;2024-03-08T10:23:06;3.63;;;1.55;;
65581;SDS011;52231;40.090;18.348;2024-03-08T10:25:36;1.95;;;1.00;;
65581;SDS011;52231;40.090;18.348;2024-03-08T10:28:04;2.83;;;0.95;;
65581;SDS011;52231;40.090;18.348;2024-03-08T10:30:33;3.95;;;1.48;;
65581;SDS011;52231;40.090;18.348;2024-03-08T10:33:01;7.82;;;1.92;;
65581;SDS011;52231;40.090;18.348;2024-03-08T10:35:32;3.03;;;1.45;;
65581;SDS011;52231;40.090;18.348;2024-03-08T10:38:00;3.47;;;1.50;;
65581;SDS011;52231;40.090;18.348;2024-03-08T10:40:35;4.47;;;1.58;;
65581;SDS011;52231;40.090;18.348;2024-03-08T10:43:10;4.18;;;1.83;;
65581;SDS011;52231;40.090;18.348;2024-03-08T10:45:45;3.78;;;1.30;;
65581;SDS011;52231;40.090;18.348;2024-03-08T10:48:29;3.47;;;1.50;;
65581;SDS011;52231;40.090;18.348;2024-03-08T10:51:04;3.47;;;1.30;;
65581;SDS011;52231;40.090;18.348;2024-03-08T10:53:34;2.67;;;1.42;;
65581;SDS011;52231;40.090;18.348;2024-03-08T10:56:04;2.47;;;1.30;;
65581;SDS011;52231;40.090;18.348;2024-03-08T10:58:33;2.80;;;1.60;;
65581;SDS011;52231;40.090;18.348;2024-03-08T11:01:03;3.83;;;1.70;;
65581;SDS011;52231;40.090;18.348;2024-03-08T11:06:08;4.22;;;1.80;;
65581;SDS011;52231;40.090;18.348;2024-03-08T11:08:39;6.47;;;1.90;;
65581;SDS011;52231;40.090;18.348;2024-03-08T11:13:59;5.65;;;2.05;;
65581;SDS011;52231;40.090;18.348;2024-03-08T11:19:00;5.20;;;2.00;;
65581;SDS011;52231;40.090;18.348;2024-03-08T11:21:33;8.30;;;2.63;;
65581;SDS011;52231;40.090;18.348;2024-03-08T11:24:13;7.93;;;2.25;;
65581;SDS011;52231;40.090;18.348;2024-03-08T11:26:45;7.28;;;2.20;;
65581;SDS011;52231;40.090;18.348;2024-03-08T11:32:04;6.15;;;1.85;;
65581;SDS011;52231;40.090;18.348;2024-03-08T11:34:40;6.32;;;2.10;;
65581;SDS011;52231;40.090;18.348;2024-03-08T11:37:12;4.82;;;1.50;;
65581;SDS011;52231;40.090;18.348;2024-03-08T11:39:46;3.65;;;1.40;;
65581;SDS011;52231;40.090;18.348;2024-03-08T11:42:17;6.97;;;2.25;;
65581;SDS011;52231;40.090;18.348;2024-03-08T11:44:46;4.65;;;1.50;;
65581;SDS011;52231;40.090;18.348;2024-03-08T11:47:15;5.78;;;1.58;;
65581;SDS011;52231;40.090;18.348;2024-03-08T11:52:13;4.50;;;1.42;;
65581;SDS011;52231;40.090;18.348;2024-03-08T11:54:47;4.82;;;1.60;;
65581;SDS011;52231;40.090;18.348;2024-03-08T11:57:19;6.88;;;1.75;;
65581;SDS011;52231;40.090;18.348;2024-03-08T11:59:53;4.53;;;1.60;;
65581;SDS011;52231;40.090;18.348;2024-03-08T12:02:25;4.38;;;1.63;;
65581;SDS011;52231;40.090;18.348;2024-03-08T12:04:58;5.47;;;1.60;;
65581;SDS011;52231;40.090;18.348;2024-03-08T12:07:27;2.80;;;1.30;;
65581;SDS011;52231;40.090;18.348;2024-03-08T12:10:15;3.17;;;1.23;;
65581;SDS011;52231;40.090;18.348;2024-03-08T12:12:45;2.63;;;1.35;;
65581;SDS011;52231;40.090;18.348;2024-03-08T12:15:15;3.22;;;1.40;;
65581;SDS011;52231;40.090;18.348;2024-03-08T12:17:49;4.25;;;1.40;;
65581;SDS011;52231;40.090;18.348;2024-03-08T12:20:20;4.00;;;1.60;;
65581;SDS011;52231;40.090;18.348;2024-03-08T12:22:53;3.17;;;1.33;;
65581;SDS011;52231;40.090;18.348;2024-03-08T12:25:30;3.30;;;1.30;;
65581;SDS011;52231;40.090;18.348;2024-03-08T12:28:12;5.05;;;1.60;;
65581;SDS011;52231;40.090;18.348;2024-03-08T12:30:46;3.08;;;1.25;;
65581;SDS011;52231;40.090;18.348;2024-03-08T12:33:24;5.45;;;1.40;;
65581;SDS011;52231;40.090;18.348;2024-03-08T12:38:21;5.25;;;1.42;;
65581;SDS011;52231;40.090;18.348;2024-03-08T12:40:58;4.80;;;1.40;;
65581;SDS011;52231;40.090;18.348;2024-03-08T12:43:28;3.20;;;1.38;;
65581;SDS011;52231;40.090;18.348;2024-03-08T12:45:59;4.40;;;1.50;;
65581;SDS011;52231;40.090;18.348;2024-03-08T12:48:27;7.05;;;2.08;;
65581;SDS011;52231;40.090;18.348;2024-03-08T12:53:25;5.07;;;1.83;;
65581;SDS011;52231;40.090;18.348;2024-03-08T12:55:56;5.97;;;1.55;;
65581;SDS011;52231;40.090;18.348;2024-03-08T12:58:24;4.40;;;1.55;;
65581;SDS011;52231;40.090;18.348;2024-03-08T13:00:53;4.80;;;1.90;;
65581;SDS011;52231;40.090;18.348;2024-03-08T13:03:22;6.00;;;1.75;;
65581;SDS011;52231;40.090;18.348;2024-03-08T13:05:50;6.75;;;2.03;;
65581;SDS011;52231;40.090;18.348;2024-03-08T13:08:18;4.90;;;1.80;;
65581;SDS011;52231;40.090;18.348;2024-03-08T13:10:47;5.75;;;1.48;;
65581;SDS011;52231;40.090;18.348;2024-03-08T13:13:16;5.93;;;1.77;;
65581;SDS011;52231;40.090;18.348;2024-03-08T13:15:44;3.95;;;1.83;;
65581;SDS011;52231;40.090;18.348;2024-03-08T13:18:12;5.90;;;2.00;;
65581;SDS011;52231;40.090;18.348;2024-03-08T13:20:43;6.78;;;1.60;;
65581;SDS011;52231;40.090;18.348;2024-03-08T13:23:35;4.88;;;1.40;;
65581;SDS011;52231;40.090;18.348;2024-03-08T13:26:07;3.88;;;1.52;;
65581;SDS011;52231;40.090;18.348;2024-03-08T13:28:36;4.20;;;2.15;;
65581;SDS011;52231;40.090;18.348;2024-03-08T13:31:05;6.85;;;2.33;;
65581;SDS011;52231;40.090;18.348;2024-03-08T13:33:39;5.10;;;2.08;;
65581;SDS011;52231;40.090;18.348;2024-03-08T13:36:09;4.30;;;2.15;;
65581;SDS011;52231;40.090;18.348;2024-03-08T13:38:45;6.15;;;2.10;;
65581;SDS011;52231;40.090;18.348;2024-03-08T13:41:14;4.22;;;1.85;;
65581;SDS011;52231;40.090;18.348;2024-03-08T13:43:45;4.68;;;1.50;;
65581;SDS011;52231;40.090;18.348;2024-03-08T13:46:17;4.53;;;1.58;;
65581;SDS011;52231;40.090;18.348;2024-03-08T13:48:46;6.00;;;1.80;;
65581;SDS011;52231;40.090;18.348;2024-03-08T13:51:15;6.45;;;1.80;;
65581;SDS011;52231;40.090;18.348;2024-03-08T13:53:44;4.38;;;1.67;;
65581;SDS011;52231;40.090;18.348;2024-03-08T13:56:12;10.15;;;3.80;;
65581;SDS011;52231;40.090;18.348;2024-03-08T13:58:42;9.18;;;3.80;;
65581;SDS011;52231;40.090;18.348;2024-03-08T14:01:11;3.47;;;1.73;;
65581;SDS011;52231;40.090;18.348;2024-03-08T14:03:39;3.53;;;1.80;;
65581;SDS011;52231;40.090;18.348;2024-03-08T14:06:09;5.90;;;1.75;;
65581;SDS011;52231;40.090;18.348;2024-03-08T14:08:47;3.92;;;1.73;;
65581;SDS011;52231;40.090;18.348;2024-03-08T14:13:46;2.47;;;1.00;;
65581;SDS011;52231;40.090;18.348;2024-03-08T14:16:15;8.23;;;1.95;;
65581;SDS011;52231;40.090;18.348;2024-03-08T14:18:44;5.05;;;1.50;;
65581;SDS011;52231;40.090;18.348;2024-03-08T14:21:12;2.55;;;1.20;;
65581;SDS011;52231;40.090;18.348;2024-03-08T14:23:41;5.05;;;1.55;;
65581;SDS011;52231;40.090;18.348;2024-03-08T14:26:10;2.65;;;1.15;;
65581;SDS011;52231;40.090;18.348;2024-03-08T14:28:38;3.25;;;1.50;;
65581;SDS011;52231;40.090;18.348;2024-03-08T14:31:09;4.63;;;1.83;;
65581;SDS011;52231;40.090;18.348;2024-03-08T14:33:42;4.28;;;1.40;;
65581;SDS011;52231;40.090;18.348;2024-03-08T14:36:16;2.45;;;1.25;;
65581;SDS011;52231;40.090;18.348;2024-03-08T14:38:47;6.03;;;2.90;;
65581;SDS011;52231;40.090;18.348;2024-03-08T14:41:15;5.18;;;2.05;;
65581;SDS011;52231;40.090;18.348;2024-03-08T14:43:44;6.25;;;1.75;;
65581;SDS011;52231;40.090;18.348;2024-03-08T14:46:13;4.45;;;1.70;;
65581;SDS011;52231;40.090;18.348;2024-03-08T14:48:44;5.35;;;1.58;;
65581;SDS011;52231;40.090;18.348;2024-03-08T14:51:14;4.82;;;1.95;;
65581;SDS011;52231;40.090;18.348;2024-03-08T14:56:12;4.82;;;1.90;;
65581;SDS011;52231;40.090;18.348;2024-03-08T14:58:45;3.80;;;1.67;;
65581;SDS011;52231;40.090;18.348;2024-03-08T15:01:17;4.20;;;1.98;;
65581;SDS011;52231;40.090;18.348;2024-03-08T15:03:51;3.83;;;2.00;;
65581;SDS011;52231;40.090;18.348;2024-03-08T15:06:22;4.82;;;1.85;;
65581;SDS011;52231;40.090;18.348;2024-03-08T15:08:52;4.93;;;1.70;;
65581;SDS011;52231;40.090;18.348;2024-03-08T15:11:23;5.88;;;1.70;;
65581;SDS011;52231;40.090;18.348;2024-03-08T15:13:52;3.08;;;1.73;;
65581;SDS011;52231;40.090;18.348;2024-03-08T15:16:21;3.60;;;1.67;;
65581;SDS011;52231;40.090;18.348;2024-03-08T15:18:54;3.30;;;1.50;;
65581;SDS011;52231;40.090;18.348;2024-03-08T15:21:23;4.68;;;1.92;;
65581;SDS011;52231;40.090;18.348;2024-03-08T15:23:53;4.25;;;1.70;;
65581;SDS011;52231;40.090;18.348;2024-03-08T15:26:22;5.32;;;2.20;;
65581;SDS011;52231;40.090;18.348;2024-03-08T15:28:51;5.90;;;1.80;;
65581;SDS011;52231;40.090;18.348;2024-03-08T15:31:22;6.75;;;2.40;;